Weather observations for the past three days for
Pagosa Springs, Wolf Creek Pass
Imperial (Metric)
Date Time (mdt) Wind (mph) Vis. (mi.) Weather Sky Cond. Temperature (ºF) Relative Humidity Wind Chill (°F) Heat Index (°F) Pressure Precipitation (in)
Air Dwpt 6 hour altimeter (in) sea level (mb) 1 hr 3 hr 6 hr
Max. Min.
09 07:55 Calm 10.00 Fair CLR 37.4 10.4 33% 30.41 0.0
09 07:35 NW 10 G 20 10.00 Fair CLR 37.4 10.4 33% 31 30.39 0.0
09 07:15 NW 14 G 22 10.00 Fair CLR 37.4 10.4 33% 30 30.38 0.0
09 06:55 NW 10 G 21 10.00 Fair CLR 35.6 10.4 35% 29 30.37 0.0
09 06:35 W 13 G 22 10.00 Fair CLR 35.6 10.4 35% 28 30.37 0.0
09 06:15 NW 13 G 23 10.00 Fair CLR 35.6 14 41% 28 30.37 0.0
09 05:55 W 12 G 25 10.00 Fair CLR 35.6 17.6 48% 28 30.35 0.0
09 05:35 W 12 G 21 10.00 Fair CLR 35.6 17.6 48% 28 30.37 0.0
09 05:15 NW 12 G 20 10.00 Fair CLR 35.6 17.6 48% 28 30.35 0.0
09 04:55 W 10 G 20 10.00 Fair CLR 35.6 17.6 48% 29 30.36 0.0
09 04:35 NW 10 G 20 10.00 Fair CLR 35.6 17.6 48% 29 30.36 0.0
09 04:15 W 10 G 16 10.00 Fair CLR 35.6 17.6 48% 29 30.36 0.0
09 03:55 W 8 G 18 10.00 Fair CLR 35.6 17.6 48% 30 30.37 0.0
09 03:35 W 9 10.00 Fair CLR 35.6 17.6 48% 29 30.37 0.0
09 03:15 SW 5 10.00 Fair CLR 35.6 17.6 48% 32 30.37 0.0
09 02:55 W 8 10.00 Fair CLR 37.4 17.6 45% 32 30.37 0.0
09 02:35 W 8 G 18 10.00 Fair CLR 37.4 17.6 45% 32 30.37 0.0
09 02:15 W 6 10.00 Fair CLR 37.4 17.6 45% 33 30.37 0.0
09 01:55 NW 3 10.00 Fair CLR 37.4 17.6 45% 30.37 0.0
09 01:35 NW 8 10.00 Fair CLR 37.4 17.6 45% 32 30.38 0.0
09 01:15 NW 6 10.00 Fair CLR 37.4 17.6 45% 33 30.39 0.0
09 00:55 W 3 10.00 Fair CLR 37.4 17.6 45% 30.39 0.0
09 00:35 W 5 10.00 Fair CLR 37.4 17.6 45% 34 30.39 0.0
09 00:15 NW 6 10.00 Fair CLR 37.4 17.6 45% 33 30.39 0.0
08 23:55 W 5 10.00 Fair CLR 39.2 17.6 42% 36 30.4 0.0
08 23:35 NW 5 10.00 Fair CLR 37.4 19.4 48% 34 30.41 0.0
08 23:15 NW 8 G 16 10.00 Fair CLR 39.2 19.4 45% 34 30.41 0.0
08 22:55 NW 7 10.00 Fair CLR 39.2 19.4 45% 35 30.41 0.0
08 22:35 NW 6 10.00 Fair CLR 39.2 19.4 45% 36 30.41 0.0
08 22:15 NW 12 G 21 10.00 Fair CLR 41 19.4 42% 35 30.4 0.0
08 21:55 NW 13 G 22 10.00 Fair CLR 41 19.4 42% 34 30.39 0.0
08 21:35 NW 14 G 20 10.00 Fair CLR 41 19.4 42% 34 30.39 0.0
08 21:15 NW 13 G 17 10.00 Fair CLR 41 17.6 39% 34 30.39 0.0
08 20:55 NW 8 10.00 Fair CLR 41 17.6 39% 36 30.39 0.0
08 20:35 NW 9 10.00 Fair CLR 41 17.6 39% 36 30.37 0.0
08 20:15 NW 6 10.00 Fair CLR 42.8 21.2 42% 40 30.37 0.0
08 19:55 W 3 10.00 Partly Cloudy SCT060 SCT070 42.8 21.2 42% 30.37 0.0
08 19:35 W 3 10.00 Overcast SCT048 BKN060 OVC075 42.8 21.2 42% 30.37 0.0
08 19:15 W 8 10.00 Overcast SCT060 OVC070 42.8 21.2 42% 39 30.37 0.0
08 18:55 SW 7 10.00 Mostly Cloudy BKN070 BKN095 42.8 23 46% 39 30.37 0.0
08 18:35 SW 9 10.00 Partly Cloudy SCT090 SCT110 42.8 23 46% 38 30.37 0.0
08 18:15 SW 13 G 21 10.00 Fair CLR 44.6 23 43% 39 30.37 0.0
08 17:55 SW 13 G 22 10.00 Fair CLR 44.6 23 43% 39 30.36 0.0
08 17:35 SW 9 G 20 10.00 Partly Cloudy SCT060 46.4 23 40% 42 30.36 0.0
08 17:15 SW 13 G 21 10.00 Fair CLR 46.4 23 40% 41 30.36 0.0
08 16:55 SW 14 G 20 10.00 Partly Cloudy SCT090 SCT120 46.4 23 40% 41 30.36 0.0
08 16:35 SW 18 G 24 10.00 Mostly Cloudy BKN090 BKN120 48.2 23 37% 42 30.36 0.0
08 16:15 SW 16 G 24 10.00 Partly Cloudy SCT090 46.4 23 40% 40 30.36 0.0
08 15:55 S 12 G 22 10.00 Partly Cloudy SCT080 46.4 23 40% 42 30.36 0.0
08 15:35 SW 13 G 22 10.00 Partly Cloudy SCT080 48.2 23 37% 43 30.37 0.0
08 15:15 SW 12 G 22 10.00 Partly Cloudy SCT080 44.6 23 43% 39 30.37 0.0
08 14:55 SW 12 G 17 10.00 Fair CLR 44.6 23 43% 39 30.37 0.0
08 14:35 SW 12 G 17 10.00 Fair CLR 44.6 23 43% 39 30.37 0.0
08 14:15 SW 15 G 21 10.00 Fair CLR 44.6 23 43% 38 30.38 0.0
08 13:55 W 10 G 18 10.00 Fair CLR 44.6 23 43% 40 30.38 0.0
08 13:35 SW 12 G 21 10.00 Fair CLR 42.8 23 46% 37 30.38 0.0
08 13:15 W 14 G 18 10.00 Partly Cloudy SCT065 SCT120 42.8 23 46% 36 30.37 0.0
08 12:55 W 7 10.00 Partly Cloudy SCT065 SCT120 42.8 21.2 42% 39 30.38 0.0
08 12:35 SW 8 10.00 Partly Cloudy SCT055 42.8 21.2 42% 39 30.39 0.0
08 12:15 SW 8 10.00 Partly Cloudy SCT055 42.8 21.2 42% 39 30.39 0.0
08 11:55 SW 10 G 16 10.00 Partly Cloudy SCT055 41 21.2 45% 35 30.39 0.0
08 11:35 NW 5 10.00 Fair CLR 41 21.2 45% 38 30.39 0.0
08 11:15 NW 7 10.00 Fair CLR 41 19.4 42% 37 30.39 0.0
08 10:55 NW 7 G 16 10.00 Fair CLR 41 19.4 42% 37 30.39 0.0
08 10:35 N 5 10.00 Fair CLR 39.2 21.2 48% 36 30.38 0.0
08 10:15 W 5 G 16 10.00 Fair CLR 37.4 19.4 48% 34 30.38 0.0
08 09:55 NW 7 10.00 Partly Cloudy SCT048 37.4 19.4 48% 33 30.37 0.0
08 09:35 NW 12 G 22 10.00 Partly Cloudy SCT047 35.6 19.4 52% 28 30.37 0.0
08 09:15 NW 5 10.00 Partly Cloudy SCT047 35.6 19.4 52% 32 30.37 0.0
08 08:55 NW 5 10.00 Partly Cloudy SCT048 35.6 19.4 52% 32 30.37 0.0
08 08:35 NW 9 10.00 Mostly Cloudy BKN048 35.6 19.4 52% 29 30.37 0.0
08 08:15 NW 7 G 21 10.00 Mostly Cloudy BKN048 33.8 19.4 56% 28 30.37 0.0
08 07:55 NW 8 10.00 Partly Cloudy SCT050 33.8 17.6 51% 28 30.37 0.0
08 07:35 NW 8 G 17 10.00 Mostly Cloudy BKN050 33.8 17.6 51% 28 30.37 0.0
08 07:15 NW 6 10.00 Mostly Cloudy BKN050 33.8 17.6 51% 29 30.36 0.0
08 06:55 W 6 10.00 Mostly Cloudy BKN050 32 17.6 55% 27 30.35 0.0
08 06:35 W 5 10.00 Overcast OVC050 32 17.6 55% 28 30.35 0.0
08 06:15 W 3 10.00 Overcast OVC050 32 17.6 55% 30.34 0.0
08 05:55 W 6 10.00 Partly Cloudy SCT050 32 17.6 55% 27 30.34 0.0
08 05:35 NW 8 10.00 Partly Cloudy SCT050 32 19.4 60% 25 30.34 0.0
08 05:15 W 5 10.00 Mostly Cloudy BKN050 32 19.4 60% 28 30.34 0.0
08 04:55 W 5 10.00 Overcast OVC055 33.8 19.4 56% 30 30.35 0.0
08 04:35 NW 6 10.00 Mostly Cloudy BKN055 BKN120 32 19.4 60% 27 30.35 0.0
08 04:15 W 6 10.00 Overcast OVC055 32 19.4 60% 27 30.35 0.0
08 03:55 W 10 10.00 Overcast OVC065 32 19.4 60% 24 30.35 0.0
08 03:35 W 7 10.00 Overcast OVC065 32 19.4 60% 26 30.34 0.0
08 03:15 NW 8 10.00 Partly Cloudy SCT065 33.8 19.4 56% 28 30.35 0.0
08 02:55 W 3 10.00 Partly Cloudy SCT075 32 19.4 60% 30.36 0.0
08 02:35 Calm 10.00 Fair CLR 32 19.4 60% 30.37 0.0
08 02:15 NW 7 10.00 Fair CLR 33.8 17.6 51% 28 30.37 0.0
08 01:55 NW 6 10.00 Fair CLR 33.8 17.6 51% 29 30.36 0.0
08 01:35 N 6 10.00 Mostly Cloudy BKN090 33.8 17.6 51% 29 30.37 0.0
08 01:15 NW 6 10.00 Overcast SCT075 OVC090 33.8 17.6 51% 29 30.37 0.0
08 00:55 NW 7 10.00 Overcast OVC075 33.8 17.6 51% 28 30.37 0.0
08 00:35 NW 9 10.00 Overcast SCT060 BKN075 OVC085 33.8 19.4 56% 27 30.37 0.0
08 00:15 W 7 10.00 Overcast BKN060 OVC075 33.8 19.4 56% 28 30.37 0.0
07 23:55 NW 5 10.00 Overcast SCT060 OVC085 33.8 19.4 56% 30 30.37 0.0
07 23:35 NW 9 10.00 Overcast OVC085 33.8 19.4 56% 27 30.37 0.0
07 23:15 NW 9 10.00 Mostly Cloudy BKN085 33.8 17.6 51% 27 30.37 0.0
07 22:55 NW 5 10.00 Partly Cloudy SCT085 33.8 17.6 51% 30 30.37 0.0
07 22:35 NW 5 10.00 Fair CLR 33.8 17.6 51% 30 30.37 0.0
07 22:15 Calm 10.00 Fair CLR 33.8 15.8 48% 30.37 0.0
07 21:55 NW 3 10.00 Fair CLR 33.8 15.8 48% 30.37 0.0
07 21:35 NW 3 10.00 Fair CLR 33.8 17.6 51% 30.37 0.0
07 21:15 NW 5 10.00 Fair CLR 33.8 17.6 51% 30 30.37 0.0
07 20:55 NW 7 10.00 Fair CLR 35.6 17.6 48% 31 30.36 0.0
07 20:35 NW 6 10.00 Fair CLR 35.6 17.6 48% 31 30.35 0.0
07 20:15 NW 3 10.00 Partly Cloudy SCT055 SCT080 35.6 14 41% 30.36 0.0
07 19:55 W 7 10.00 Overcast SCT055 OVC080 35.6 14 41% 31 30.35 0.0
07 19:35 SW 6 10.00 Overcast SCT049 SCT055 OVC080 37.4 14 38% 33 30.34 0.0
07 19:15 W 6 10.00 Overcast SCT049 BKN070 OVC080 37.4 14 38% 33 30.34 0.0
07 18:55 W 7 10.00 Overcast SCT060 SCT070 OVC080 37.4 14 38% 33 30.34 0.0
07 18:35 SW 8 10.00 Mostly Cloudy SCT065 BKN080 37.4 17.6 45% 32 30.34 0.0
07 18:15 SW 12 G 16 10.00 Partly Cloudy SCT080 39.2 15.8 39% 33 30.34 0.0
07 17:55 W 9 G 18 10.00 Fair CLR 39.2 17.6 42% 34 30.34 0.0
07 17:35 W 8 10.00 Fair CLR 41 15.8 36% 36 30.34 0.0
07 17:15 SW 8 10.00 Fair CLR 41 15.8 36% 36 30.34 0.0
07 16:55 W 9 10.00 Fair CLR 41 17.6 39% 36 30.34 0.0
07 16:35 W 8 G 18 10.00 Fair CLR 41 17.6 39% 36 30.34 0.0
07 16:15 W 8 G 17 10.00 Fair CLR 39.2 17.6 42% 34 30.34 0.0
07 15:55 W 12 G 16 10.00 Fair CLR 39.2 17.6 42% 33 30.34 0.0
07 15:35 SW 10 G 17 10.00 Fair CLR 39.2 19.4 45% 33 30.35 0.0
07 15:15 W 9 G 20 10.00 Fair CLR 37.4 19.4 48% 31 30.35 0.0
07 14:55 W 14 G 18 10.00 Fair CLR 37.4 19.4 48% 30 30.35 0.0
07 14:35 W 15 G 20 10.00 Fair CLR 35.6 19.4 52% 27 30.36 0.0
07 14:15 W 14 G 18 10.00 Fair CLR 35.6 19.4 52% 27 30.37 0.0
07 13:55 W 9 G 18 10.00 Fair CLR 35.6 19.4 52% 29 30.37 0.0
07 13:35 W 10 10.00 Fair CLR 35.6 17.6 48% 29 30.37 0.0
07 13:15 SW 10 10.00 Fair CLR 35.6 15.8 44% 29 30.37 0.0
07 12:55 SW 8 10.00 Fair CLR 35.6 17.6 48% 30 30.37 0.0
07 12:35 SW 10 10.00 Fair CLR 35.6 17.6 48% 29 30.38 0.0
07 12:15 SW 10 10.00 Fair CLR 33.8 15.8 48% 26 30.37 0.0
07 11:55 SW 7 10.00 Fair CLR 37.4 14 38% 33 30.37 0.0
07 11:35 SW 5 10.00 Fair CLR 35.6 14 41% 32 30.38 0.0
07 11:15 SW 3 10.00 Fair CLR 33.8 14 44% 30.38 0.0
07 10:55 W 6 10.00 Fair CLR 33.8 12.2 41% 29 30.38 0.0
07 10:35 SW 5 10.00 Fair CLR 32 5 32% 28 30.38 0.0
07 10:15 W 5 10.00 Fair CLR 32 1.4 27% 28 30.39 0.0
07 09:55 W 7 10.00 Fair CLR 32 -2.2 23% 26 30.38 0.0
07 09:35 W 8 10.00 Fair CLR 30.2 -4 22% 23 30.37 0.0
07 09:15 SW 9 10.00 Fair CLR 30.2 -5.8 20% 23 30.37 0.0
07 08:55 SW 10 10.00 Fair CLR 30.2 -7.6 19% 22 30.37 0.0
07 08:35 W 10 10.00 Fair CLR 26.6 -5.8 24% 18 30.37 0.0
07 08:15 W 12 10.00 Fair CLR 24.8 -0.4 33% 15 30.37 0.0
07 07:55 W 12 10.00 Fair CLR 24.8 -4 28% 15 30.37 0.0
07 07:35 W 10 10.00 Fair CLR 23 -4 30% 13 30.37 0.0
07 07:15 SW 10 10.00 Fair CLR 24.8 -11.2 20% 15 30.36 0.0
07 06:55 SW 12 10.00 Fair CLR 23 -7.6 25% 13 30.35 0.0
07 06:35 W 12 10.00 Fair CLR 23 -7.6 25% 13 30.34 0.0
07 06:15 SW 8 10.00 Fair CLR 23 -14.8 18% 15 30.34 0.0
07 05:55 W 8 10.00 Fair CLR 24.8 -16.6 15% 17 30.34 0.0
07 05:35 W 8 10.00 Fair CLR 24.8 -14.8 16% 17 30.34 0.0
07 05:15 SW 7 10.00 Fair CLR 24.8 -13 18% 18 30.34 0.0
07 04:55 SW 3 10.00 Fair CLR 26.6 -18.4 13% 30.34 0.0
07 04:35 NW 3 10.00 Fair CLR 26.6 -18.4 13% 30.34 0.0
07 04:15 NW 5 10.00 Fair CLR 26.6 -16.6 14% 22 30.34 0.0
07 03:55 N 3 10.00 Partly Cloudy SCT110 24.8 -11.2 20% 30.34 0.0
07 03:35 NW 6 10.00 Partly Cloudy SCT110 24.8 -7.6 23% 19 30.34 0.0
07 03:15 Calm 10.00 Fair CLR 23 -5.8 28% 30.34 0.0
07 02:55 NW 6 10.00 Fair CLR 23 -4 30% 17 30.33 0.0
07 02:35 N 5 10.00 Fair CLR 21.2 -0.4 38% 16 30.34 0.0
07 02:15 Calm 10.00 Fair CLR 19.4 5 53% 30.33 0.0
07 01:55 NE 3 10.00 Fair CLR 19.4 5 53% 30.33 0.0
07 01:35 NE 6 10.00 Fair CLR 19.4 5 53% 12 30.33 0.0
07 01:15 N 12 10.00 Fair CLR 19.4 5 53% 8 30.33 0.0
07 00:55 N 9 10.00 Fair CLR 19.4 6.8 58% 10 30.33 0.0
07 00:35 NE 10 10.00 Fair CLR 19.4 8.6 63% 9 30.33 0.0
07 00:15 NE 7 10.00 Fair CLR 19.4 8.6 63% 11 30.32 0.0
06 23:55 NE 8 10.00 Fair CLR 19.4 8.6 63% 10 30.31 0.0
06 23:35 N 8 G 17 10.00 Fair CLR 19.4 6.8 58% 10 30.3 0.0
06 23:15 N 10 G 16 10.00 Fair CLR 19.4 6.8 58% 9 30.3 0.0
06 22:55 N 7 10.00 Fair CLR 19.4 8.6 63% 11 30.3 0.0
06 22:35 N 10 10.00 Fair CLR 19.4 8.6 63% 9 30.3 0.0
06 22:15 N 10 10.00 Fair CLR 19.4 8.6 63% 9 30.3 0.0
06 21:55 N 8 10.00 Fair CLR 19.4 8.6 63% 10 30.29 0.0
06 21:35 N 7 10.00 Fair CLR 21.2 8.6 58% 13 30.29 0.0
06 21:15 N 6 10.00 Fair CLR 21.2 10.4 63% 14 30.28 0.0
06 20:55 NE 6 10.00 Fair CLR 21.2 8.6 58% 14 30.27 0.0
06 20:35 N 6 10.00 Fair CLR 21.2 8.6 58% 14 30.26 0.0
06 20:15 N 6 10.00 Fair CLR 23 10.4 58% 17 30.25 0.0
06 19:55 N 5 10.00 Fair CLR 24.8 10.4 54% 20 30.25 0.0
06 19:35 NW 7 10.00 Fair CLR 26.6 10.4 50% 20 30.23 0.0
06 19:15 NW 7 10.00 Fair CLR 26.6 10.4 50% 20 30.23 0.0
06 18:55 N 7 10.00 Fair CLR 26.6 10.4 50% 20 30.21 0.0
06 18:35 NW 7 10.00 Fair CLR 28.4 10.4 47% 22 30.21 0.0
06 18:15 Calm 10.00 Fair CLR 28.4 8.6 43% 30.2 0.0
06 17:55 NW 8 10.00 Fair CLR 28.4 8.6 43% 21 30.19 0.0
06 17:35 NW 9 10.00 Fair CLR 28.4 10.4 47% 20 30.18 0.0
06 17:15 NW 7 G 16 10.00 Fair CLR 28.4 10.4 47% 22 30.17 0.0
06 16:55 NW 6 10.00 Partly Cloudy SCT048 SCT055 30.2 10.4 43% 25 30.16 0.0
06 16:35 NW 5 10.00 Mostly Cloudy SCT032 SCT042 BKN055 28.4 12.2 51% 24 30.15 0.0
06 16:15 NW 5 10.00 Mostly Cloudy SCT003 SCT033 BKN055 28.4 23 80% 24 30.14 0.0
06 15:55 W 6 10.00 Overcast SCT003 SCT024 OVC050 24.8 24.8 100% 19 30.14 0.0
06 15:35 W 8 0.50 Overcast OVC001 26.6 26.6 100% 19 30.14 0.0
06 15:15 W 7 10.00 Partly Cloudy SCT020 SCT028 SCT041 26.6 26.6 100% 20 30.13 0.0
06 14:55 NW 5 10.00 Overcast SCT015 BKN031 OVC042 24.8 24.8 100% 20 30.13 0.0
06 14:35 NW 7 10.00 Overcast SCT026 BKN035 OVC075 0 0 0% 30.12 0.0
06 14:15 Calm 0.00 NULL NULL 23 23 100% 30.12 0.0
06 13:55 Calm 0.00 NULL NULL 21.2 21.2 100% 30.11 0.0 0.01
06 13:35 NW 9 0.00 Thunderstorm BKN001 BKN009 OVC014 0 0 0% 30.09 0.0
06 13:15 Calm 0.00 Overcast OVC001 19.4 19.4 100% 30.09 0.0
06 12:55 NW 13 G 20 0.00 Overcast OVC001 0 0 0% 30.09 0.0 0.02
06 12:35 NW 15 G 18 0.00 Overcast OVC001 0 0 0% 30.1 0.0 0.02
06 12:15 W 8 G 20 0.00 Overcast OVC001 0 0 0% 30.1 0.0 0.01
06 11:55 Calm 0.00 Overcast OVC001 0 0 0% 30.08 0.0 0.08
06 11:35 SW 17 0.00 Overcast OVC001 0 0 0% 30.07 0.0 0.05
06 11:15 SW 16 G 24 0.00 Thunderstorm in Vicinity OVC001 0 0 0% 30.07 0.0 0.01
06 10:55 Calm 0.00 Overcast OVC001 0 0 0% 30.06 0.0 0.06
06 10:35 SW 18 0.00 Overcast OVC001 0 0 0% 30.05 0.0 0.04
06 10:15 SW 17 G 32 0.00 Overcast OVC001 0 0 0% 30.06 0.0 0.01
06 09:55 SW 21 0.00 Overcast and Breezy OVC001 0 0 0% 30.05 0.0 0.03
06 09:35 W 13 G 30 0.00 Overcast OVC001 0 0 0% 30.06 0.0 0.03
06 09:15 SW 18 0.00 Overcast OVC001 0 0 0% 30.04 0.0 0.01
06 08:55 Calm 0.00 Overcast OVC001 0 0 0% 30.04 0.0 0.02
06 08:35 Calm 0.00 Overcast OVC001 0 0 0% 30.04 0.0 0.02
06 08:15 Calm 0.00 Overcast OVC001 23 23 100% 30.04 0.0 0.01
Date Time (mdt) Wind (mph) Vis. (mi.) Weather Sky Cond. Air Dwpt Max. Min. Relative Humidity Wind Chill (°F) Heat Index (°F) altimeter (in) sea level (mb) 1 hr 3 hr 6 hr
6 hour
Temperature (ºF) Pressure Precipitation (in)